sensor_id;sensor_type;location;lat;lon;timestamp;pressure;altitude;pressure_sealevel;temperature;humidity
75359;BME280;64046;51.978;5.934;2024-02-26T00:01:24;99884.84;;;11.57;66.31
75359;BME280;64046;51.978;5.934;2024-02-26T00:03:55;99877.00;;;11.57;66.23
75359;BME280;64046;51.978;5.934;2024-02-26T00:06:25;99880.94;;;11.50;66.42
75359;BME280;64046;51.978;5.934;2024-02-26T00:08:55;99887.41;;;11.45;66.75
75359;BME280;64046;51.978;5.934;2024-02-26T00:11:24;99886.59;;;11.44;66.86
75359;BME280;64046;51.978;5.934;2024-02-26T00:13:56;99888.25;;;11.59;66.81
75359;BME280;64046;51.978;5.934;2024-02-26T00:16:26;99887.72;;;11.40;67.25
75359;BME280;64046;51.978;5.934;2024-02-26T00:18:55;99885.94;;;11.40;67.33
75359;BME280;64046;51.978;5.934;2024-02-26T00:21:24;99882.56;;;11.38;67.40
75359;BME280;64046;51.978;5.934;2024-02-26T00:23:54;99882.66;;;11.37;67.53
75359;BME280;64046;51.978;5.934;2024-02-26T00:26:23;99886.13;;;11.37;67.69
75359;BME280;64046;51.978;5.934;2024-02-26T00:28:52;99880.03;;;11.37;67.54
75359;BME280;64046;51.978;5.934;2024-02-26T00:31:24;99880.66;;;11.55;67.26
75359;BME280;64046;51.978;5.934;2024-02-26T00:33:54;99880.25;;;11.34;67.77
75359;BME280;64046;51.978;5.934;2024-02-26T00:36:23;99878.63;;;11.31;67.79
75359;BME280;64046;51.978;5.934;2024-02-26T00:38:52;99875.81;;;11.34;67.97
75359;BME280;64046;51.978;5.934;2024-02-26T00:41:22;99878.00;;;11.28;67.99
75359;BME280;64046;51.978;5.934;2024-02-26T00:43:51;99871.16;;;11.25;67.91
75359;BME280;64046;51.978;5.934;2024-02-26T00:46:20;99876.59;;;11.22;67.89
75359;BME280;64046;51.978;5.934;2024-02-26T00:48:52;99870.38;;;11.37;67.91
75359;BME280;64046;51.978;5.934;2024-02-26T00:51:22;99866.13;;;11.22;67.94
75359;BME280;64046;51.978;5.934;2024-02-26T00:53:51;99863.66;;;11.19;67.87
75359;BME280;64046;51.978;5.934;2024-02-26T00:56:21;99862.63;;;11.21;67.99
75359;BME280;64046;51.978;5.934;2024-02-26T00:58:50;99858.78;;;11.27;67.77
75359;BME280;64046;51.978;5.934;2024-02-26T01:01:20;99862.19;;;11.29;67.32
75359;BME280;64046;51.978;5.934;2024-02-26T01:03:52;99865.63;;;11.30;67.26
75359;BME280;64046;51.978;5.934;2024-02-26T01:06:21;99867.31;;;11.31;67.08
75359;BME280;64046;51.978;5.934;2024-02-26T01:08:51;99869.66;;;11.35;66.81
75359;BME280;64046;51.978;5.934;2024-02-26T01:11:20;99850.88;;;11.41;66.23
75359;BME280;64046;51.978;5.934;2024-02-26T01:13:49;99860.25;;;11.46;65.86
75359;BME280;64046;51.978;5.934;2024-02-26T01:16:22;99859.94;;;11.50;65.57
75359;BME280;64046;51.978;5.934;2024-02-26T01:18:54;99846.69;;;11.66;64.70
75359;BME280;64046;51.978;5.934;2024-02-26T01:21:23;99847.22;;;11.44;64.99
75359;BME280;64046;51.978;5.934;2024-02-26T01:23:55;99849.75;;;11.46;64.58
75359;BME280;64046;51.978;5.934;2024-02-26T01:26:24;99842.66;;;11.48;64.48
75359;BME280;64046;51.978;5.934;2024-02-26T01:28:53;99845.06;;;11.51;64.54
75359;BME280;64046;51.978;5.934;2024-02-26T01:31:24;99853.47;;;11.56;64.25
75359;BME280;64046;51.978;5.934;2024-02-26T01:33:56;99852.19;;;11.76;63.99
75359;BME280;64046;51.978;5.934;2024-02-26T01:36:25;99848.88;;;11.59;63.97
75359;BME280;64046;51.978;5.934;2024-02-26T01:38:54;99851.59;;;11.58;63.82
75359;BME280;64046;51.978;5.934;2024-02-26T01:41:23;99851.31;;;11.63;63.71
75359;BME280;64046;51.978;5.934;2024-02-26T01:43:53;99861.59;;;11.66;63.62
75359;BME280;64046;51.978;5.934;2024-02-26T01:46:22;99868.13;;;11.73;63.28
75359;BME280;64046;51.978;5.934;2024-02-26T01:48:55;99872.16;;;11.78;63.31
75359;BME280;64046;51.978;5.934;2024-02-26T01:51:25;99876.63;;;11.64;63.43
75359;BME280;64046;51.978;5.934;2024-02-26T01:53:54;99886.72;;;11.70;63.34
75359;BME280;64046;51.978;5.934;2024-02-26T01:56:24;99890.28;;;11.69;63.04
75359;BME280;64046;51.978;5.934;2024-02-26T01:58:57;99905.66;;;11.75;63.20
75359;BME280;64046;51.978;5.934;2024-02-26T02:01:27;99914.97;;;11.79;63.09
75359;BME280;64046;51.978;5.934;2024-02-26T02:04:01;99904.22;;;11.84;62.84
75359;BME280;64046;51.978;5.934;2024-02-26T02:06:30;99912.41;;;11.65;63.13
75359;BME280;64046;51.978;5.934;2024-02-26T02:09:00;99908.84;;;11.66;63.34
75359;BME280;64046;51.978;5.934;2024-02-26T02:11:32;99910.16;;;11.58;63.65
75359;BME280;64046;51.978;5.934;2024-02-26T02:14:04;99908.84;;;11.66;63.61
75359;BME280;64046;51.978;5.934;2024-02-26T02:16:33;99911.59;;;11.50;64.04
75359;BME280;64046;51.978;5.934;2024-02-26T02:19:08;99913.44;;;11.62;64.06
75359;BME280;64046;51.978;5.934;2024-02-26T02:21:40;99911.28;;;11.54;64.52
75359;BME280;64046;51.978;5.934;2024-02-26T02:24:09;99920.50;;;11.33;64.93
75359;BME280;64046;51.978;5.934;2024-02-26T02:26:41;99918.66;;;11.35;64.97
75359;BME280;64046;51.978;5.934;2024-02-26T02:29:11;99924.44;;;11.40;65.16
75359;BME280;64046;51.978;5.934;2024-02-26T02:31:41;99927.63;;;11.31;65.26
75359;BME280;64046;51.978;5.934;2024-02-26T02:34:12;99933.72;;;11.31;65.43
75359;BME280;64046;51.978;5.934;2024-02-26T02:36:52;99931.25;;;11.57;64.74
75359;BME280;64046;51.978;5.934;2024-02-26T02:39:22;99935.50;;;11.31;65.49
75359;BME280;64046;51.978;5.934;2024-02-26T02:41:51;99937.84;;;11.21;65.83
75359;BME280;64046;51.978;5.934;2024-02-26T02:44:20;99935.41;;;11.18;65.92
75359;BME280;64046;51.978;5.934;2024-02-26T02:46:49;99929.31;;;11.17;66.04
75359;BME280;64046;51.978;5.934;2024-02-26T02:49:19;99934.47;;;11.19;66.12
75359;BME280;64046;51.978;5.934;2024-02-26T02:51:52;99941.09;;;11.39;65.74
75359;BME280;64046;51.978;5.934;2024-02-26T02:54:23;99940.38;;;11.22;65.96
75359;BME280;64046;51.978;5.934;2024-02-26T02:56:53;99933.34;;;11.23;65.99
75359;BME280;64046;51.978;5.934;2024-02-26T02:59:22;99939.34;;;11.25;65.76
75359;BME280;64046;51.978;5.934;2024-02-26T03:01:51;99932.41;;;11.24;65.98
75359;BME280;64046;51.978;5.934;2024-02-26T03:04:21;99927.06;;;11.25;66.09
75359;BME280;64046;51.978;5.934;2024-02-26T03:06:53;99926.97;;;11.41;65.74
75359;BME280;64046;51.978;5.934;2024-02-26T03:09:22;99932.69;;;11.19;66.24
75359;BME280;64046;51.978;5.934;2024-02-26T03:11:51;99922.41;;;11.16;66.52
75359;BME280;64046;51.978;5.934;2024-02-26T03:14:21;99936.34;;;11.17;66.54
75359;BME280;64046;51.978;5.934;2024-02-26T03:16:54;99937.00;;;11.35;66.09
75359;BME280;64046;51.978;5.934;2024-02-26T03:19:23;99927.56;;;11.18;66.29
75359;BME280;64046;51.978;5.934;2024-02-26T03:21:55;99937.75;;;11.37;65.90
75359;BME280;64046;51.978;5.934;2024-02-26T03:24:25;99943.81;;;11.23;65.92
75359;BME280;64046;51.978;5.934;2024-02-26T03:26:54;99938.22;;;11.29;65.46
75359;BME280;64046;51.978;5.934;2024-02-26T03:29:23;99943.38;;;11.31;65.46
75359;BME280;64046;51.978;5.934;2024-02-26T03:31:52;99942.31;;;11.33;65.31
75359;BME280;64046;51.978;5.934;2024-02-26T03:34:22;99944.13;;;11.33;65.12
75359;BME280;64046;51.978;5.934;2024-02-26T03:36:52;99956.19;;;11.35;64.97
75359;BME280;64046;51.978;5.934;2024-02-26T03:39:23;99951.63;;;11.53;64.72
75359;BME280;64046;51.978;5.934;2024-02-26T03:41:53;99946.00;;;11.31;65.02
75359;BME280;64046;51.978;5.934;2024-02-26T03:44:22;99944.22;;;11.31;64.80
75359;BME280;64046;51.978;5.934;2024-02-26T03:46:51;99944.31;;;11.30;64.70
75359;BME280;64046;51.978;5.934;2024-02-26T03:49:22;99941.88;;;11.27;64.99
75359;BME280;64046;51.978;5.934;2024-02-26T03:51:51;99949.25;;;11.20;65.05
75359;BME280;64046;51.978;5.934;2024-02-26T03:54:23;99946.94;;;11.30;64.87
75359;BME280;64046;51.978;5.934;2024-02-26T03:56:52;99941.22;;;11.08;65.10
75359;BME280;64046;51.978;5.934;2024-02-26T03:59:23;99938.69;;;11.07;65.12
75359;BME280;64046;51.978;5.934;2024-02-26T04:01:53;99947.94;;;11.13;64.92
75359;BME280;64046;51.978;5.934;2024-02-26T04:04:23;99948.63;;;11.16;64.61
75359;BME280;64046;51.978;5.934;2024-02-26T04:06:52;99951.69;;;11.23;64.34
75359;BME280;64046;51.978;5.934;2024-02-26T04:09:24;99942.59;;;11.43;63.79
75359;BME280;64046;51.978;5.934;2024-02-26T04:11:53;99969.88;;;11.26;64.01
75359;BME280;64046;51.978;5.934;2024-02-26T04:14:23;99963.88;;;11.24;63.70
75359;BME280;64046;51.978;5.934;2024-02-26T04:16:52;99962.84;;;11.27;63.64
75359;BME280;64046;51.978;5.934;2024-02-26T04:19:21;99958.63;;;11.24;63.70
75359;BME280;64046;51.978;5.934;2024-02-26T04:21:51;99968.19;;;11.25;63.91
75359;BME280;64046;51.978;5.934;2024-02-26T04:24:20;99973.63;;;11.22;63.86
75359;BME280;64046;51.978;5.934;2024-02-26T04:26:52;99977.00;;;11.38;63.71
75359;BME280;64046;51.978;5.934;2024-02-26T04:29:21;99976.34;;;11.20;63.84
75359;BME280;64046;51.978;5.934;2024-02-26T04:31:51;99971.25;;;11.17;64.09
75359;BME280;64046;51.978;5.934;2024-02-26T04:34:20;99973.06;;;11.17;64.41
75359;BME280;64046;51.978;5.934;2024-02-26T04:36:49;99975.50;;;11.20;64.10
75359;BME280;64046;51.978;5.934;2024-02-26T04:39:19;99978.19;;;11.18;64.37
75359;BME280;64046;51.978;5.934;2024-02-26T04:41:48;99983.16;;;11.23;64.33
75359;BME280;64046;51.978;5.934;2024-02-26T04:44:20;99983.16;;;11.37;63.93
75359;BME280;64046;51.978;5.934;2024-02-26T04:46:49;99988.88;;;11.15;64.10
75359;BME280;64046;51.978;5.934;2024-02-26T04:49:18;99990.09;;;11.10;64.46
75359;BME280;64046;51.978;5.934;2024-02-26T04:51:48;99997.03;;;11.11;64.53
75359;BME280;64046;51.978;5.934;2024-02-26T04:54:17;99995.63;;;11.05;64.87
75359;BME280;64046;51.978;5.934;2024-02-26T04:56:47;99984.13;;;11.07;65.24
75359;BME280;64046;51.978;5.934;2024-02-26T04:59:16;100002.91;;;11.00;65.87
75359;BME280;64046;51.978;5.934;2024-02-26T05:01:48;99991.50;;;11.15;65.80
75359;BME280;64046;51.978;5.934;2024-02-26T05:04:19;99992.41;;;11.00;66.12
75359;BME280;64046;51.978;5.934;2024-02-26T05:06:48;99996.91;;;10.98;66.60
75359;BME280;64046;51.978;5.934;2024-02-26T05:09:17;99991.19;;;10.91;66.78
75359;BME280;64046;51.978;5.934;2024-02-26T05:11:47;99994.19;;;10.85;67.32
75359;BME280;64046;51.978;5.934;2024-02-26T05:14:16;100002.97;;;10.84;67.55
75359;BME280;64046;51.978;5.934;2024-02-26T05:16:48;100002.63;;;11.04;67.64
75359;BME280;64046;51.978;5.934;2024-02-26T05:19:17;100013.06;;;10.90;67.94
75359;BME280;64046;51.978;5.934;2024-02-26T05:21:46;100002.50;;;10.91;68.13
75359;BME280;64046;51.978;5.934;2024-02-26T05:24:16;99998.88;;;10.94;68.35
75359;BME280;64046;51.978;5.934;2024-02-26T05:26:48;100009.72;;;10.88;68.80
75359;BME280;64046;51.978;5.934;2024-02-26T05:29:18;100012.53;;;10.85;69.27
75359;BME280;64046;51.978;5.934;2024-02-26T05:31:49;100001.47;;;10.94;69.72
75359;BME280;64046;51.978;5.934;2024-02-26T05:34:20;100012.56;;;10.69;70.66
75359;BME280;64046;51.978;5.934;2024-02-26T05:36:49;100012.56;;;10.69;71.27
75359;BME280;64046;51.978;5.934;2024-02-26T05:39:19;100011.53;;;10.71;71.27
75359;BME280;64046;51.978;5.934;2024-02-26T05:41:48;100010.59;;;10.72;71.64
75359;BME280;64046;51.978;5.934;2024-02-26T05:44:18;100020.34;;;10.70;71.86
75359;BME280;64046;51.978;5.934;2024-02-26T05:46:50;100024.53;;;10.89;71.78
75359;BME280;64046;51.978;5.934;2024-02-26T05:49:19;100017.44;;;10.75;71.96
75359;BME280;64046;51.978;5.934;2024-02-26T05:51:49;100013.22;;;10.72;72.13
75359;BME280;64046;51.978;5.934;2024-02-26T05:54:18;100028.94;;;10.72;72.19
75359;BME280;64046;51.978;5.934;2024-02-26T05:56:48;100029.44;;;10.79;72.53
75359;BME280;64046;51.978;5.934;2024-02-26T05:59:18;100016.38;;;10.63;73.07
75359;BME280;64046;51.978;5.934;2024-02-26T06:01:50;100038.22;;;10.78;72.92
75359;BME280;64046;51.978;5.934;2024-02-26T06:04:19;100030.59;;;10.59;73.31
75359;BME280;64046;51.978;5.934;2024-02-26T06:06:49;100025.53;;;10.56;73.58
75359;BME280;64046;51.978;5.934;2024-02-26T06:09:20;100038.22;;;10.48;74.14
75359;BME280;64046;51.978;5.934;2024-02-26T06:11:51;100032.72;;;10.52;74.08
75359;BME280;64046;51.978;5.934;2024-02-26T06:14:20;100042.09;;;10.56;74.06
75359;BME280;64046;51.978;5.934;2024-02-26T06:16:52;100037.72;;;10.71;74.04
75359;BME280;64046;51.978;5.934;2024-02-26T06:19:21;100043.78;;;10.58;73.89
75359;BME280;64046;51.978;5.934;2024-02-26T06:21:51;100059.41;;;10.59;73.91
75359;BME280;64046;51.978;5.934;2024-02-26T06:24:20;100066.41;;;10.59;74.04
75359;BME280;64046;51.978;5.934;2024-02-26T06:26:49;100058.81;;;10.54;74.22
75359;BME280;64046;51.978;5.934;2024-02-26T06:29:19;100065.25;;;10.48;74.53
75359;BME280;64046;51.978;5.934;2024-02-26T06:31:48;100066.25;;;10.46;74.65
75359;BME280;64046;51.978;5.934;2024-02-26T06:34:20;100069.44;;;10.67;74.39
75359;BME280;64046;51.978;5.934;2024-02-26T06:36:51;100076.31;;;10.53;74.77
75359;BME280;64046;51.978;5.934;2024-02-26T06:39:20;100079.13;;;10.50;74.71
75359;BME280;64046;51.978;5.934;2024-02-26T06:41:49;100088.91;;;10.47;75.35
75359;BME280;64046;51.978;5.934;2024-02-26T06:44:24;100080.38;;;10.43;75.63
75359;BME280;64046;51.978;5.934;2024-02-26T06:46:58;100083.66;;;10.47;75.62
75359;BME280;64046;51.978;5.934;2024-02-26T06:49:30;100092.19;;;10.66;75.39
75359;BME280;64046;51.978;5.934;2024-02-26T06:51:59;100093.03;;;10.51;75.53
75359;BME280;64046;51.978;5.934;2024-02-26T06:54:29;100097.38;;;10.52;75.55
75359;BME280;64046;51.978;5.934;2024-02-26T06:56:59;100102.94;;;10.62;75.69
75359;BME280;64046;51.978;5.934;2024-02-26T06:59:28;100112.06;;;10.54;75.83
75359;BME280;64046;51.978;5.934;2024-02-26T07:01:57;100100.72;;;10.54;76.30
75359;BME280;64046;51.978;5.934;2024-02-26T07:04:27;100101.06;;;10.48;76.50
75359;BME280;64046;51.978;5.934;2024-02-26T07:07:00;100116.88;;;10.62;76.56
75359;BME280;64046;51.978;5.934;2024-02-26T07:09:30;100111.81;;;10.43;77.18
75359;BME280;64046;51.978;5.934;2024-02-26T07:12:02;100114.19;;;10.48;77.25
75359;BME280;64046;51.978;5.934;2024-02-26T07:14:31;100117.88;;;10.44;77.62
75359;BME280;64046;51.978;5.934;2024-02-26T07:17:03;100119.75;;;10.42;77.83
75359;BME280;64046;51.978;5.934;2024-02-26T07:19:33;100112.03;;;10.38;78.26
75359;BME280;64046;51.978;5.934;2024-02-26T07:22:05;100123.22;;;10.58;78.14
75359;BME280;64046;51.978;5.934;2024-02-26T07:24:34;100132.00;;;10.41;78.43
75359;BME280;64046;51.978;5.934;2024-02-26T07:27:04;100128.00;;;10.34;79.15
75359;BME280;64046;51.978;5.934;2024-02-26T07:29:34;100123.00;;;10.29;79.65
75359;BME280;64046;51.978;5.934;2024-02-26T07:32:05;100134.25;;;10.47;79.70
75359;BME280;64046;51.978;5.934;2024-02-26T07:34:35;100135.69;;;10.37;79.85
75359;BME280;64046;51.978;5.934;2024-02-26T07:37:10;100124.31;;;10.54;79.85
75359;BME280;64046;51.978;5.934;2024-02-26T07:39:39;100144.50;;;10.36;80.33
75359;BME280;64046;51.978;5.934;2024-02-26T07:42:09;100130.47;;;10.37;80.83
75359;BME280;64046;51.978;5.934;2024-02-26T07:44:38;100140.25;;;10.33;81.08
75359;BME280;64046;51.978;5.934;2024-02-26T07:47:09;100156.88;;;10.32;81.41
75359;BME280;64046;51.978;5.934;2024-02-26T07:49:39;100142.56;;;10.39;81.51
75359;BME280;64046;51.978;5.934;2024-02-26T07:52:11;100152.47;;;10.50;81.70
75359;BME280;64046;51.978;5.934;2024-02-26T07:54:40;100148.88;;;10.35;81.90
75359;BME280;64046;51.978;5.934;2024-02-26T07:57:09;100147.97;;;10.36;81.87
75359;BME280;64046;51.978;5.934;2024-02-26T07:59:42;100153.03;;;10.39;82.03
75359;BME280;64046;51.978;5.934;2024-02-26T08:02:15;100142.56;;;10.39;82.59
75359;BME280;64046;51.978;5.934;2024-02-26T08:04:45;100165.13;;;10.42;82.60
75359;BME280;64046;51.978;5.934;2024-02-26T08:07:17;100160.50;;;10.63;82.21
75359;BME280;64046;51.978;5.934;2024-02-26T08:09:49;100162.31;;;10.45;82.84
75359;BME280;64046;51.978;5.934;2024-02-26T08:12:19;100158.09;;;10.43;83.16
75359;BME280;64046;51.978;5.934;2024-02-26T08:14:48;100166.97;;;10.40;83.74
75359;BME280;64046;51.978;5.934;2024-02-26T08:17:17;100173.16;;;10.39;84.17
75359;BME280;64046;51.978;5.934;2024-02-26T08:19:47;100165.38;;;10.37;84.28
75359;BME280;64046;51.978;5.934;2024-02-26T08:22:18;100175.69;;;10.56;84.11
75359;BME280;64046;51.978;5.934;2024-02-26T08:24:48;100183.53;;;10.41;84.31
75359;BME280;64046;51.978;5.934;2024-02-26T08:27:17;100183.72;;;10.37;84.71
75359;BME280;64046;51.978;5.934;2024-02-26T08:29:46;100183.00;;;10.34;85.01
75359;BME280;64046;51.978;5.934;2024-02-26T08:32:16;100186.03;;;10.26;85.54
75359;BME280;64046;51.978;5.934;2024-02-26T08:34:45;100187.84;;;10.24;85.90
75359;BME280;64046;51.978;5.934;2024-02-26T08:37:17;100194.34;;;10.17;86.34
75359;BME280;64046;51.978;5.934;2024-02-26T08:39:47;100192.50;;;10.19;86.55
75359;BME280;64046;51.978;5.934;2024-02-26T08:42:16;100204.50;;;10.23;86.54
75359;BME280;64046;51.978;5.934;2024-02-26T08:44:45;100199.28;;;10.23;86.38
75359;BME280;64046;51.978;5.934;2024-02-26T08:47:15;100194.19;;;10.20;86.76
75359;BME280;64046;51.978;5.934;2024-02-26T08:49:45;100191.00;;;10.31;86.92
75359;BME280;64046;51.978;5.934;2024-02-26T08:52:14;100192.25;;;10.24;86.91
75359;BME280;64046;51.978;5.934;2024-02-26T08:54:46;100204.25;;;10.45;86.31
75359;BME280;64046;51.978;5.934;2024-02-26T08:57:15;100201.91;;;10.23;87.15
75359;BME280;64046;51.978;5.934;2024-02-26T08:59:45;100199.88;;;10.28;87.11
75359;BME280;64046;51.978;5.934;2024-02-26T09:02:14;100208.72;;;10.26;87.47
75359;BME280;64046;51.978;5.934;2024-02-26T09:04:43;100201.03;;;10.22;87.79
75359;BME280;64046;51.978;5.934;2024-02-26T09:07:13;100213.97;;;10.26;87.71
75359;BME280;64046;51.978;5.934;2024-02-26T09:09:42;100215.66;;;10.27;87.59
75359;BME280;64046;51.978;5.934;2024-02-26T09:12:15;100223.50;;;10.44;87.65
75359;BME280;64046;51.978;5.934;2024-02-26T09:14:45;100224.34;;;10.27;88.07
75359;BME280;64046;51.978;5.934;2024-02-26T09:17:15;100228.84;;;10.25;88.50
75359;BME280;64046;51.978;5.934;2024-02-26T09:19:44;100241.00;;;10.26;88.47
75359;BME280;64046;51.978;5.934;2024-02-26T09:22:13;100237.78;;;10.21;88.62
75359;BME280;64046;51.978;5.934;2024-02-26T09:24:42;100245.03;;;10.16;88.82
75359;BME280;64046;51.978;5.934;2024-02-26T09:27:14;100241.31;;;10.20;89.15
75359;BME280;64046;51.978;5.934;2024-02-26T09:29:44;100235.00;;;10.24;89.11
75359;BME280;64046;51.978;5.934;2024-02-26T09:32:14;100240.69;;;10.32;89.07
75359;BME280;64046;51.978;5.934;2024-02-26T09:34:44;100258.16;;;10.32;89.00
75359;BME280;64046;51.978;5.934;2024-02-26T09:37:13;100250.31;;;10.32;89.45
75359;BME280;64046;51.978;5.934;2024-02-26T09:39:42;100255.41;;;10.35;89.15
75359;BME280;64046;51.978;5.934;2024-02-26T09:42:15;100255.88;;;10.43;89.40
75359;BME280;64046;51.978;5.934;2024-02-26T09:44:50;100256.16;;;10.54;89.22
75359;BME280;64046;51.978;5.934;2024-02-26T09:47:21;100263.31;;;10.51;89.39
75359;BME280;64046;51.978;5.934;2024-02-26T09:49:56;100261.81;;;10.63;88.94
75359;BME280;64046;51.978;5.934;2024-02-26T09:52:27;100253.28;;;10.59;88.73
75359;BME280;64046;51.978;5.934;2024-02-26T09:54:57;100274.13;;;10.45;89.43
75359;BME280;64046;51.978;5.934;2024-02-26T09:57:29;100265.22;;;10.65;89.08
75359;BME280;64046;51.978;5.934;2024-02-26T09:59:59;100279.94;;;10.50;89.55
75359;BME280;64046;51.978;5.934;2024-02-26T10:02:35;100286.47;;;10.59;89.61
75359;BME280;64046;51.978;5.934;2024-02-26T10:05:07;100294.25;;;10.60;89.74
75359;BME280;64046;51.978;5.934;2024-02-26T10:07:39;100298.28;;;10.50;89.88
75359;BME280;64046;51.978;5.934;2024-02-26T10:10:09;100290.22;;;10.54;89.99
75359;BME280;64046;51.978;5.934;2024-02-26T10:12:42;100295.88;;;10.63;89.28
75359;BME280;64046;51.978;5.934;2024-02-26T10:15:11;100302.00;;;10.46;89.40
75359;BME280;64046;51.978;5.934;2024-02-26T10:17:41;100308.75;;;10.50;89.68
75359;BME280;64046;51.978;5.934;2024-02-26T10:20:12;100317.31;;;10.53;89.80
75359;BME280;64046;51.978;5.934;2024-02-26T10:22:39;100313.94;;;10.34;90.10
75359;BME280;64046;51.978;5.934;2024-02-26T10:25:08;100309.50;;;10.36;90.43
75359;BME280;64046;51.978;5.934;2024-02-26T10:27:42;100307.22;;;10.46;90.41
75359;BME280;64046;51.978;5.934;2024-02-26T10:30:20;100322.47;;;10.55;89.86
75359;BME280;64046;51.978;5.934;2024-02-26T10:32:52;100337.38;;;10.37;90.69
75359;BME280;64046;51.978;5.934;2024-02-26T10:35:21;100326.97;;;10.35;90.40
75359;BME280;64046;51.978;5.934;2024-02-26T10:37:51;100335.44;;;10.41;90.21
75359;BME280;64046;51.978;5.934;2024-02-26T10:40:21;100330.22;;;10.41;90.43
75359;BME280;64046;51.978;5.934;2024-02-26T10:42:52;100339.66;;;10.61;89.90
75359;BME280;64046;51.978;5.934;2024-02-26T10:45:22;100353.47;;;10.47;90.06
75359;BME280;64046;51.978;5.934;2024-02-26T10:47:51;100379.50;;;10.50;90.03
75359;BME280;64046;51.978;5.934;2024-02-26T10:50:21;100360.16;;;10.52;90.25
75359;BME280;64046;51.978;5.934;2024-02-26T10:52:50;100371.09;;;10.61;90.03
75359;BME280;64046;51.978;5.934;2024-02-26T10:55:22;100374.69;;;10.76;89.52
75359;BME280;64046;51.978;5.934;2024-02-26T10:57:55;100379.66;;;10.80;89.32
75359;BME280;64046;51.978;5.934;2024-02-26T11:00:26;100387.94;;;10.72;89.52
75359;BME280;64046;51.978;5.934;2024-02-26T11:02:56;100388.94;;;10.70;89.70
75359;BME280;64046;51.978;5.934;2024-02-26T11:05:30;100396.50;;;10.76;89.53
75359;BME280;64046;51.978;5.934;2024-02-26T11:08:00;100398.44;;;10.72;89.61
75359;BME280;64046;51.978;5.934;2024-02-26T11:10:30;100407.69;;;10.62;89.64
75359;BME280;64046;51.978;5.934;2024-02-26T11:13:02;100405.13;;;10.78;89.70
75359;BME280;64046;51.978;5.934;2024-02-26T11:15:33;100408.59;;;10.61;90.14
75359;BME280;64046;51.978;5.934;2024-02-26T11:18:03;100418.78;;;10.67;89.85
75359;BME280;64046;51.978;5.934;2024-02-26T11:20:33;100414.16;;;10.72;89.89
75359;BME280;64046;51.978;5.934;2024-02-26T11:23:03;100445.91;;;10.66;90.20
75359;BME280;64046;51.978;5.934;2024-02-26T11:25:33;100419.25;;;10.58;90.07
75359;BME280;64046;51.978;5.934;2024-02-26T11:28:07;100404.59;;;10.71;90.00
75359;BME280;64046;51.978;5.934;2024-02-26T11:30:40;100414.47;;;10.66;90.70
75359;BME280;64046;51.978;5.934;2024-02-26T11:33:12;100427.81;;;10.62;90.69
75359;BME280;64046;51.978;5.934;2024-02-26T11:35:42;100432.50;;;10.55;90.84
75359;BME280;64046;51.978;5.934;2024-02-26T11:38:17;100421.78;;;10.77;90.14
75359;BME280;64046;51.978;5.934;2024-02-26T11:40:48;100421.19;;;10.54;90.64
75359;BME280;64046;51.978;5.934;2024-02-26T11:43:23;100414.84;;;10.76;90.18
75359;BME280;64046;51.978;5.934;2024-02-26T11:45:53;100426.19;;;10.59;90.60
75359;BME280;64046;51.978;5.934;2024-02-26T11:48:25;100425.56;;;10.54;90.95
75359;BME280;64046;51.978;5.934;2024-02-26T11:50:57;100442.91;;;10.56;90.93
75359;BME280;64046;51.978;5.934;2024-02-26T11:53:28;100427.75;;;10.63;91.02
75359;BME280;64046;51.978;5.934;2024-02-26T11:56:21;100427.13;;;10.91;89.52
75359;BME280;64046;51.978;5.934;2024-02-26T11:59:05;100432.47;;;10.90;89.96
75359;BME280;64046;51.978;5.934;2024-02-26T12:01:44;100437.31;;;10.80;90.29
75359;BME280;64046;51.978;5.934;2024-02-26T12:04:13;100445.06;;;10.66;91.29
75359;BME280;64046;51.978;5.934;2024-02-26T12:06:45;100433.56;;;10.68;91.47
75359;BME280;64046;51.978;5.934;2024-02-26T12:09:32;100436.34;;;10.83;90.13
75359;BME280;64046;51.978;5.934;2024-02-26T12:12:04;100444.06;;;10.68;91.43
75359;BME280;64046;51.978;5.934;2024-02-26T12:14:37;100457.63;;;10.77;91.18
75359;BME280;64046;51.978;5.934;2024-02-26T12:17:07;100451.91;;;10.68;91.17
75359;BME280;64046;51.978;5.934;2024-02-26T12:19:47;100452.31;;;10.61;91.02
75359;BME280;64046;51.978;5.934;2024-02-26T12:22:18;100453.00;;;10.64;91.25
75359;BME280;64046;51.978;5.934;2024-02-26T12:24:47;100463.25;;;10.69;91.02
75359;BME280;64046;51.978;5.934;2024-02-26T12:27:17;100452.78;;;10.69;90.91
75359;BME280;64046;51.978;5.934;2024-02-26T12:29:48;100466.63;;;10.88;90.68
75359;BME280;64046;51.978;5.934;2024-02-26T12:32:18;100464.66;;;10.76;90.84
75359;BME280;64046;51.978;5.934;2024-02-26T12:34:47;100465.47;;;10.77;90.67
75359;BME280;64046;51.978;5.934;2024-02-26T12:37:17;100483.75;;;10.78;90.71
75359;BME280;64046;51.978;5.934;2024-02-26T12:39:46;100471.66;;;10.76;90.80
75359;BME280;64046;51.978;5.934;2024-02-26T12:42:16;100487.28;;;10.77;90.95
75359;BME280;64046;51.978;5.934;2024-02-26T12:44:49;100483.22;;;10.89;90.68
75359;BME280;64046;51.978;5.934;2024-02-26T12:47:19;100484.81;;;10.91;89.51
75359;BME280;64046;51.978;5.934;2024-02-26T12:49:48;100494.69;;;10.86;89.66
75359;BME280;64046;51.978;5.934;2024-02-26T12:52:17;100499.94;;;10.86;89.81
75359;BME280;64046;51.978;5.934;2024-02-26T12:54:48;100502.72;;;10.83;89.93
75359;BME280;64046;51.978;5.934;2024-02-26T12:57:17;100496.53;;;10.84;90.04
75359;BME280;64046;51.978;5.934;2024-02-26T12:59:49;100507.63;;;11.07;89.55
75359;BME280;64046;51.978;5.934;2024-02-26T13:02:19;100512.91;;;10.89;89.79
75359;BME280;64046;51.978;5.934;2024-02-26T13:04:48;100508.19;;;10.96;90.26
75359;BME280;64046;51.978;5.934;2024-02-26T13:07:18;100522.13;;;10.97;89.84
75359;BME280;64046;51.978;5.934;2024-02-26T13:09:47;100511.91;;;10.92;90.01
75359;BME280;64046;51.978;5.934;2024-02-26T13:12:16;100511.19;;;10.88;90.23